Lloc web orientat als practicants d'activitats
Centenari de l'SMC: 100 anys mirant el cel

Dades de l'estació automàtica Canyelles

?
?

Resum diari

22:30 TU
Dades diàries de l'estació meteorològica
Temperatura mitjana 11.1 °C
Temperatura màxima 15.7 °C 11:33 TU
Temperatura mínima 4.6 °C 4:52 TU
Humitat relativa mitjana 81%
Precipitació acumulada 0.0 mm
Ratxa màxima del vent (10 m) 24.1 km/h - 143º 10:35 TU
Irradiació solar global 20.7 MJ/m2

El tram horari està expressat en Temps Universal (TU). Cal sumar una hora en horari d'hivern i dues en horari d'estiu per passar a l'hora oficial.

Canyelles

Metadades estació meteorològica
Municipi Canyelles
Comarca Garraf
Altitud 148 m
Data alta 16.07.2013
Estat actual Operativa
Dades de període
Període
TU
TM
°C
TX
°C
TN
°C
HRM
%
PPT
mm
VVM (10 m)
km/h
DVM (10 m)
graus
VVX (10 m)
km/h
RS
W/m2
00:00 - 00:30 6.3 6.5 6.2 95 0.0 2.9 78 9.7 0
00:30 - 01:00 6.2 6.3 6.0 96 0.0 4.3 58 9.0 0
01:00 - 01:30 6.9 7.0 6.3 93 0.0 6.1 351 11.5 0
01:30 - 02:00 7.1 7.2 6.9 90 0.0 6.8 351 13.3 0
02:00 - 02:30 7.1 7.3 6.7 89 0.0 3.6 325 9.7 0
02:30 - 03:00 6.1 6.6 5.7 92 0.0 3.6 55 8.6 0
03:00 - 03:30 5.9 6.0 5.6 94 0.0 2.5 330 6.5 0
03:30 - 04:00 5.6 5.9 5.4 95 0.0 1.4 353 6.1 0
04:00 - 04:30 5.2 5.5 5.0 96 0.0 0.4 273 2.9 0
04:30 - 05:00 4.8 5.0 4.6 96 0.0 1.1 266 5.4 0
05:00 - 05:30 5.3 5.7 4.8 96 0.0 3.6 6 9.7 3
05:30 - 06:00 5.4 5.7 5.2 94 0.0 3.2 37 10.4 27
06:00 - 06:30 6.5 7.1 5.6 90 0.0 5.0 13 11.9 79
06:30 - 07:00 8.0 8.6 7.2 84 0.0 6.1 8 14.8 155
07:00 - 07:30 9.5 10.5 8.5 78 0.0 7.6 8 14.4 310
07:30 - 08:00 11.2 12.6 10.5 74 0.0 6.5 4 13.0 399
08:00 - 08:30 13.4 14.1 12.7 68 0.0 3.6 49 10.1 465
08:30 - 09:00 13.5 14.6 12.7 69 0.0 5.0 174 19.1 484
09:00 - 09:30 14.5 15.2 13.9 66 0.0 10.1 145 23.8 780
09:30 - 10:00 14.7 15.4 13.8 64 0.0 11.2 149 20.9 793
10:00 - 10:30 14.9 15.3 14.4 64 0.0 10.4 152 21.6 844
10:30 - 11:00 14.8 15.2 14.3 63 0.0 11.5 152 24.1 910
11:00 - 11:30 15.1 15.6 14.7 62 0.0 10.1 150 23.0 917
11:30 - 12:00 14.9 15.7 14.5 62 0.0 11.5 143 24.1 939
12:00 - 12:30 15.3 15.6 15.0 61 0.0 10.1 160 21.2 919
12:30 - 13:00 15.5 15.7 15.1 60 0.0 10.4 154 22.0 908
13:00 - 13:30 15.2 15.5 14.8 60 0.0 10.1 152 21.2 755
13:30 - 14:00 14.5 15.4 13.6 64 0.0 10.4 149 23.8 506
14:00 - 14:30 13.5 13.7 13.3 69 0.0 10.8 152 21.6 283
14:30 - 15:00 13.3 13.5 13.0 71 0.0 8.3 158 16.6 191
15:00 - 15:30 13.6 14.0 13.3 72 0.0 7.6 172 18.4 299
15:30 - 16:00 13.7 13.8 13.5 73 0.0 8.3 164 18.0 246
16:00 - 16:30 13.6 13.8 13.3 76 0.0 7.6 164 15.5 153
16:30 - 17:00 13.4 13.6 13.4 78 0.0 6.5 167 14.0 106
17:00 - 17:30 13.3 13.6 13.2 80 0.0 5.8 159 12.2 63
17:30 - 18:00 13.0 13.2 12.9 82 0.0 5.8 172 12.2 33
18:00 - 18:30 12.8 12.9 12.8 84 0.0 5.4 170 10.4 5
18:30 - 19:00 12.8 12.9 12.7 85 0.0 4.3 205 9.0 0
19:00 - 19:30 12.7 12.8 12.6 86 0.0 2.9 196 7.6 0
19:30 - 20:00 12.5 12.6 12.3 87 0.0 2.5 217 5.4 0
20:00 - 20:30 12.1 12.3 12.0 89 0.0 1.4 216 3.2 0
20:30 - 21:00 11.7 12.1 11.5 90 0.0 0.0 183 2.5 0
21:00 - 21:30 11.4 11.6 11.2 92 0.0 1.1 88 2.9 0
21:30 - 22:00 11.2 11.4 11.1 93 0.0 1.8 64 4.3 0
22:00 - 22:30 11.1 11.2 11.1 93 0.0 1.4 41 4.3 0
22:30 - 23:00 11.2 11.3 11.1 92 0.0 0.4 210 2.2 0

Les dades en taronja només han passat un control de qualitat automàtic. Resta pendent la seva validació definitiva.